Time;durP1;ratioP1;P1;durP2;ratioP2;P2;SDS_P1;SDS_P2;PMS_P1;PMS_P2;Temp;Humidity;BMP_temperature;BMP_pressure;BME280_temperature;BME280_humidity;BME280_pressure;Samples;Min_cycle;Max_cycle;Signal;HPM_P1;HPM_P2
2023/05/07 00:00:10;;;;;;;13.75;4.03;;;;;;;16.37;100.00;100959.53;2086450;28;20493;-78
2023/05/07 00:01:32;;;;;;;20.25;4.88;;;;;;;16.37;100.00;100959.53;2092604;28;20048;-79
2023/05/07 00:02:55;;;;;;;14.48;4.03;;;;;;;16.34;100.00;100954.22;2097846;28;20037;-79
2023/05/07 00:04:18;;;;;;;15.73;4.38;;;;;;;16.32;100.00;100958.66;2087037;28;20041;-83
2023/05/07 00:05:39;;;;;;;12.50;3.88;;;;;;;16.32;100.00;100953.34;2092755;28;20583;-85
2023/05/07 00:07:02;;;;;;;10.68;3.90;;;;;;;16.33;100.00;100957.78;2102664;28;20123;-85
2023/05/07 00:08:24;;;;;;;15.57;4.03;;;;;;;16.29;100.00;100959.56;2112320;28;20043;-84
2023/05/07 00:09:45;;;;;;;18.70;4.35;;;;;;;16.27;100.00;100957.81;2103763;28;20051;-85
2023/05/07 00:11:08;;;;;;;12.63;3.80;;;;;;;16.30;100.00;100965.78;2112299;28;20051;-85
2023/05/07 00:12:31;;;;;;;12.85;3.55;;;;;;;16.31;100.00;100964.88;2111991;28;20047;-83
2023/05/07 00:13:53;;;;;;;13.05;3.78;;;;;;;16.30;100.00;100966.66;2095085;28;20052;-83
2023/05/07 00:15:16;;;;;;;14.05;3.78;;;;;;;16.31;100.00;100948.91;2094412;28;20040;-77
2023/05/07 00:16:37;;;;;;;15.10;3.60;;;;;;;16.34;100.00;100954.22;2097176;28;20052;-77
2023/05/07 00:18:00;;;;;;;13.95;4.28;;;;;;;16.35;100.00;100961.31;2094974;28;20095;-79
2023/05/07 00:19:22;;;;;;;16.83;3.95;;;;;;;16.34;100.00;100948.91;2086989;28;20061;-78
2023/05/07 00:20:44;;;;;;;17.25;3.83;;;;;;;16.34;100.00;100962.22;2091820;28;20066;-78
2023/05/07 00:22:05;;;;;;;14.85;4.28;;;;;;;16.33;100.00;100947.13;2097288;28;20393;-78
2023/05/07 00:23:28;;;;;;;9.35;3.55;;;;;;;16.31;100.00;100949.78;2098264;28;20524;-78
2023/05/07 00:24:49;;;;;;;13.13;4.10;;;;;;;16.30;100.00;100958.66;2103054;28;20044;-78
2023/05/07 00:26:11;;;;;;;12.32;4.18;;;;;;;16.29;100.00;100950.69;2103285;28;20139;-78
2023/05/07 00:27:34;;;;;;;15.02;4.32;;;;;;;16.26;100.00;100951.59;2094949;28;20044;-78
2023/05/07 00:28:56;;;;;;;12.52;3.60;;;;;;;16.21;100.00;100960.50;2094754;28;20162;-78
2023/05/07 00:30:18;;;;;;;13.25;3.90;;;;;;;16.14;100.00;100951.66;2092542;28;20082;-78
2023/05/07 00:31:40;;;;;;;11.73;4.03;;;;;;;16.12;100.00;100960.53;2092214;28;20151;-78
2023/05/07 00:33:03;;;;;;;14.20;4.47;;;;;;;16.13;100.00;100962.31;2103140;28;20395;-78
2023/05/07 00:34:25;;;;;;;11.48;3.70;;;;;;;16.10;100.00;100965.84;2108973;28;20035;-78
2023/05/07 00:35:48;;;;;;;17.95;4.35;;;;;;;16.09;100.00;100961.41;2100240;28;20098;-77
2023/05/07 00:37:09;;;;;;;11.00;4.40;;;;;;;16.09;100.00;100972.06;2095896;28;20486;-78
2023/05/07 00:38:31;;;;;;;15.10;4.32;;;;;;;16.04;100.00;100976.53;2105344;28;20448;-77
2023/05/07 00:39:52;;;;;;;13.30;4.15;;;;;;;16.01;100.00;100962.34;2111342;28;20437;-77
2023/05/07 00:41:15;;;;;;;14.27;4.35;;;;;;;16.00;100.00;100961.47;2087674;28;20401;-77
2023/05/07 00:42:37;;;;;;;15.55;4.47;;;;;;;16.00;100.00;100965.91;2103376;28;20077;-78
2023/05/07 00:43:59;;;;;;;;;;;;;;;15.94;100.00;100953.50;2109983;28;20047;-77
2023/05/07 00:45:22;;;;;;;10.38;3.50;;;;;;;15.91;100.00;100951.72;2102825;28;19928;-77
2023/05/07 00:46:44;;;;;;;8.85;3.63;;;;;;;15.93;100.00;100951.72;2101884;28;20078;-77
2023/05/07 00:48:07;;;;;;;14.57;3.92;;;;;;;15.93;100.00;100947.28;2105398;28;20109;-77
2023/05/07 00:49:39;;;;;;;12.07;4.07;;;;;;;15.93;100.00;100946.41;2100108;28;20098;-77
2023/05/07 00:51:00;;;;;;;10.18;3.90;;;;;;;15.89;100.00;100939.28;2089320;28;20146;-77
2023/05/07 00:52:26;;;;;;;15.25;4.00;;;;;;;15.87;100.00;100947.31;2095795;28;20085;-77
2023/05/07 00:53:48;;;;;;;10.40;4.03;;;;;;;15.86;100.00;100947.31;2103416;28;20043;-77
2023/05/07 00:55:14;;;;;;;12.85;3.90;;;;;;;15.84;100.00;100947.31;2104749;28;20048;-77
2023/05/07 00:56:36;;;;;;;11.98;4.03;;;;;;;15.82;100.00;100948.19;2097411;28;20032;-77
2023/05/07 00:57:59;;;;;;;12.00;3.92;;;;;;;15.78;100.00;100947.31;2102585;28;20064;-77
2023/05/07 00:59:20;;;;;;;11.70;3.42;;;;;;;15.77;100.00;100955.31;2094432;28;20582;-77
2023/05/07 01:00:43;;;;;;;13.30;3.58;;;;;;;15.76;100.00;100951.75;2091299;28;20056;-77
2023/05/07 01:02:05;;;;;;;12.40;4.30;;;;;;;15.75;100.00;100947.31;2100146;28;20040;-78
2023/05/07 01:03:29;;;;;;;12.88;4.53;;;;;;;15.75;100.00;100952.63;2100327;28;20055;-77
2023/05/07 01:04:52;;;;;;;12.20;3.58;;;;;;;15.69;100.00;100947.34;2108557;28;20039;-77
2023/05/07 01:06:16;;;;;;;14.00;3.83;;;;;;;15.67;100.00;100954.47;2111181;28;20051;-77
2023/05/07 01:07:39;;;;;;;12.18;3.92;;;;;;;15.69;100.00;100949.09;2108417;28;20064;-77
2023/05/07 01:09:04;;;;;;;10.30;3.75;;;;;;;15.69;100.00;100943.78;2094551;28;20045;-78
2023/05/07 01:10:27;;;;;;;10.45;3.88;;;;;;;15.67;100.00;100954.47;2094204;28;20048;-77
2023/05/07 01:11:50;;;;;;;11.73;4.18;;;;;;;15.65;100.00;100940.25;2100190;28;20085;-77
2023/05/07 01:13:14;;;;;;;10.98;3.53;;;;;;;15.63;100.00;100941.13;2097877;28;20040;-78
2023/05/07 01:14:36;;;;;;;11.80;4.32;;;;;;;15.63;100.00;100938.47;2094538;28;20057;-78
2023/05/07 01:15:59;;;;;;;9.68;3.35;;;;;;;15.63;100.00;100939.38;2091772;28;20075;-77
2023/05/07 01:17:20;;;;;;;13.63;4.03;;;;;;;15.61;100.00;100935.84;2099678;28;20052;-77
2023/05/07 01:18:47;;;;;;;9.70;3.53;;;;;;;15.60;100.00;100939.38;2102563;28;20068;-78
2023/05/07 01:20:10;;;;;;;13.40;3.55;;;;;;;15.61;100.00;100935.84;2095088;28;20153;-77
2023/05/07 01:21:34;;;;;;;11.85;3.30;;;;;;;15.63;100.00;100934.03;2099370;28;20401;-77
2023/05/07 01:23:02;;;;;;;10.00;3.72;;;;;;;15.66;100.00;100947.34;2100887;28;20135;-77
2023/05/07 01:24:24;;;;;;;11.70;4.05;;;;;;;15.63;100.00;100939.38;2102983;28;20082;-77
2023/05/07 01:25:53;;;;;;;16.17;3.92;;;;;;;15.66;100.00;100950.03;2108224;28;20090;-77
2023/05/07 01:27:14;;;;;;;15.48;4.53;;;;;;;15.67;100.00;100938.50;2103645;28;20397;-77
2023/05/07 01:28:37;;;;;;;13.23;3.80;;;;;;;15.69;100.00;100941.13;2091677;28;20942;-78
2023/05/07 01:30:00;;;;;;;14.40;4.70;;;;;;;15.70;100.00;100943.78;2092111;28;20040;-77
2023/05/07 01:31:24;;;;;;;14.20;3.67;;;;;;;15.72;100.00;100946.44;2091567;28;20060;-77
2023/05/07 01:32:51;;;;;;;15.85;4.15;;;;;;;15.72;100.00;100944.69;2092713;28;20045;-78
2023/05/07 01:34:16;;;;;;;13.82;4.43;;;;;;;15.70;100.00;100949.09;2101226;28;20049;-77
2023/05/07 01:35:40;;;;;;;10.15;3.85;;;;;;;15.71;100.00;100947.34;2094499;28;20105;-78
2023/05/07 01:37:03;;;;;;;13.93;4.03;;;;;;;15.72;100.00;100947.34;2092409;28;20439;-77
2023/05/07 01:38:27;;;;;;;13.35;3.88;;;;;;;15.72;100.00;100947.34;2101952;28;20086;-77
2023/05/07 01:39:50;;;;;;;14.63;3.80;;;;;;;15.73;100.00;100942.91;2102611;28;20055;-77
2023/05/07 01:41:13;;;;;;;13.40;3.95;;;;;;;15.73;100.00;100942.91;2108366;28;20054;-77
2023/05/07 01:42:35;;;;;;;12.77;4.80;;;;;;;15.73;100.00;100950.88;2102840;28;20547;-78
2023/05/07 01:43:59;;;;;;;13.57;3.97;;;;;;;15.71;100.00;100950.88;2102528;28;20036;-77
2023/05/07 01:45:20;;;;;;;15.40;4.63;;;;;;;15.69;100.00;100957.97;2108634;28;20636;-78
2023/05/07 01:46:43;;;;;;;16.40;4.95;;;;;;;15.70;100.00;100953.53;2109216;28;20074;-77
2023/05/07 01:48:07;;;;;;;16.00;4.15;;;;;;;15.69;100.00;100959.75;2108878;28;20074;-78
2023/05/07 01:49:28;;;;;;;16.77;4.70;;;;;;;15.68;100.00;100961.56;2094468;28;20040;-77
2023/05/07 01:50:52;;;;;;;14.15;4.00;;;;;;;15.68;100.00;100950.91;2091433;28;20043;-77
2023/05/07 01:52:13;;;;;;;14.68;4.13;;;;;;;15.71;100.00;100952.66;2098501;28;20048;-78
2023/05/07 01:53:39;;;;;;;16.20;4.25;;;;;;;15.77;100.00;100944.66;2102769;28;20139;-78
2023/05/07 01:55:00;;;;;;;12.70;4.00;;;;;;;15.80;100.00;100945.56;2094236;28;20052;-77
2023/05/07 01:56:23;;;;;;;21.40;4.22;;;;;;;15.82;100.00;100949.06;2092680;28;20135;-77
2023/05/07 01:57:44;;;;;;;14.88;4.20;;;;;;;15.83;100.00;100941.97;2091672;28;20049;-78
2023/05/07 01:59:07;;;;;;;14.55;4.13;;;;;;;15.81;100.00;100946.44;2090895;28;20079;-77
2023/05/07 02:00:28;;;;;;;14.20;4.13;;;;;;;15.78;100.00;100942.00;2091464;28;20048;-77
2023/05/07 02:01:51;;;;;;;11.88;3.88;;;;;;;15.77;100.00;100932.25;2091517;28;20037;-77
2023/05/07 02:03:12;;;;;;;13.85;4.63;;;;;;;15.77;100.00;100940.22;2099986;28;20503;-77
2023/05/07 02:04:45;;;;;;;14.00;4.03;;;;;;;15.77;100.00;100945.53;2103147;28;20056;-78
2023/05/07 02:06:07;;;;;;;12.43;3.67;;;;;;;15.74;100.00;100940.25;2096499;28;20139;-77
2023/05/07 02:07:33;;;;;;;12.40;4.00;;;;;;;15.70;100.00;100942.91;2092291;28;20056;-78
2023/05/07 02:08:57;;;;;;;16.88;4.25;;;;;;;15.71;100.00;100940.25;2087842;28;20041;-78
2023/05/07 02:10:19;;;;;;;12.35;3.95;;;;;;;15.71;100.00;100940.25;2091778;28;20048;-77
2023/05/07 02:11:41;;;;;;;13.68;3.83;;;;;;;15.71;100.00;100942.91;2091173;28;20057;-78
2023/05/07 02:13:02;;;;;;;14.38;3.72;;;;;;;15.72;100.00;100936.69;2095822;28;20051;-77
2023/05/07 02:14:25;;;;;;;13.70;3.47;;;;;;;15.71;100.00;100934.91;2094060;28;20067;-78
2023/05/07 02:15:50;;;;;;;10.95;3.65;;;;;;;15.72;100.00;100946.44;2102185;28;20052;-77
2023/05/07 02:17:12;;;;;;;18.00;4.20;;;;;;;15.72;100.00;100943.78;2094140;28;20048;-77
2023/05/07 02:18:35;;;;;;;13.10;3.88;;;;;;;15.72;100.00;100946.44;2091457;28;20055;-77
2023/05/07 02:19:56;;;;;;;12.93;3.70;;;;;;;15.72;100.00;100950.00;2091165;28;20071;-78
2023/05/07 02:21:19;;;;;;;12.90;4.00;;;;;;;15.69;100.00;100944.66;2099278;28;20056;-77
2023/05/07 02:22:40;;;;;;;13.48;3.28;;;;;;;15.67;100.00;100943.81;2095489;28;20090;-75
2023/05/07 02:24:04;;;;;;;15.07;3.60;;;;;;;15.65;100.00;100947.34;2099413;28;20043;-78
2023/05/07 02:25:26;;;;;;;13.13;4.28;;;;;;;15.64;100.00;100938.47;2094237;28;20135;-78
2023/05/07 02:26:48;;;;;;;13.50;3.63;;;;;;;15.64;100.00;100949.13;2099387;28;20097;-77
2023/05/07 02:28:10;;;;;;;11.90;4.15;;;;;;;15.66;100.00;100944.69;2093937;28;20056;-77
2023/05/07 02:29:39;;;;;;;13.25;3.28;;;;;;;15.65;100.00;100950.91;2101382;28;20059;-77
2023/05/07 02:31:02;;;;;;;11.48;3.65;;;;;;;15.66;100.00;100949.13;2094081;28;20055;-77
2023/05/07 02:32:25;;;;;;;13.88;4.32;;;;;;;15.67;100.00;100945.59;2091681;28;20574;-77
2023/05/07 02:33:48;;;;;;;12.38;3.83;;;;;;;15.65;100.00;100945.59;2091399;28;20043;-77
2023/05/07 02:35:10;;;;;;;15.35;4.00;;;;;;;15.62;100.00;100950.91;2098102;28;20066;-77
2023/05/07 02:36:32;;;;;;;15.70;4.60;;;;;;;15.63;100.00;100946.47;2101978;28;20047;-77
2023/05/07 02:38:05;;;;;;;13.90;3.90;;;;;;;15.63;100.00;100942.03;2110648;28;20044;-77
2023/05/07 02:39:30;;;;;;;14.10;3.72;;;;;;;15.62;100.00;100945.56;2097121;28;20044;-77
2023/05/07 02:40:51;;;;;;;12.45;3.65;;;;;;;15.63;100.00;100938.47;2099383;28;20481;-77
2023/05/07 02:42:14;;;;;;;11.82;3.40;;;;;;;15.62;100.00;100940.25;2104679;28;20082;-77
2023/05/07 02:43:35;;;;;;;12.73;4.05;;;;;;;15.59;100.00;100937.63;2093246;28;20520;-77
2023/05/07 02:44:57;;;;;;;13.13;3.78;;;;;;;15.59;100.00;100942.03;2090854;28;20532;-77
2023/05/07 02:46:20;;;;;;;16.70;3.58;;;;;;;15.57;100.00;100931.41;2093873;28;20456;-77
2023/05/07 02:47:47;;;;;;;12.13;3.72;;;;;;;15.58;100.00;100930.50;2101025;28;20155;-77
2023/05/07 02:49:09;;;;;;;14.10;4.05;;;;;;;15.57;100.00;100939.38;2101747;28;20556;-77
2023/05/07 02:50:32;;;;;;;9.90;3.30;;;;;;;15.50;100.00;100935.81;2095054;28;20048;-76
2023/05/07 02:51:55;;;;;;;9.95;3.47;;;;;;;15.49;100.00;100934.03;2085767;28;20045;-77
2023/05/07 02:53:18;;;;;;;11.82;3.20;;;;;;;15.50;100.00;100934.91;2091570;28;20048;-77
2023/05/07 02:54:42;;;;;;;10.48;2.78;;;;;;;15.51;100.00;100931.38;2085414;28;20056;-77
2023/05/07 02:56:03;;;;;;;13.55;3.92;;;;;;;15.51;100.00;100942.03;2093060;28;20036;-77
2023/05/07 02:57:26;;;;;;;10.68;3.40;;;;;;;15.49;100.00;100935.84;2093427;28;20080;-77
2023/05/07 02:58:47;;;;;;;14.52;4.20;;;;;;;15.49;100.00;100933.19;2085641;28;20056;-77
2023/05/07 03:00:15;;;;;;;11.35;4.30;;;;;;;15.52;100.00;100930.50;2085796;28;20057;-77
2023/05/07 03:01:46;;;;;;;11.52;3.80;;;;;;;15.49;100.00;100942.03;2094605;28;20060;-78
2023/05/07 03:03:08;;;;;;;10.80;3.72;;;;;;;15.50;100.00;100924.28;2096433;28;20628;-77
2023/05/07 03:04:30;;;;;;;16.27;4.55;;;;;;;15.49;100.00;100928.72;2093806;28;20500;-78
2023/05/07 03:05:51;;;;;;;10.80;3.45;;;;;;;15.48;100.00;100942.03;2091693;28;20168;-77
2023/05/07 03:07:14;;;;;;;12.68;3.88;;;;;;;15.45;100.00;100947.34;2099453;28;20117;-77
2023/05/07 03:08:36;;;;;;;10.23;3.33;;;;;;;15.44;100.00;100946.47;2105517;28;20040;-77
2023/05/07 03:09:59;;;;;;;10.90;3.15;;;;;;;15.44;100.00;100935.81;2101758;28;20048;-77
2023/05/07 03:11:22;;;;;;;12.25;3.35;;;;;;;15.43;100.00;100933.16;2102259;28;20055;-77
2023/05/07 03:12:43;;;;;;;14.52;4.00;;;;;;;15.43;100.00;100934.06;2102199;28;20044;-77
2023/05/07 03:14:10;;;;;;;11.20;3.10;;;;;;;15.39;100.00;100942.94;2083883;28;20131;-77
2023/05/07 03:15:31;;;;;;;9.05;2.95;;;;;;;15.40;100.00;100933.19;2086384;28;20163;-77
2023/05/07 03:16:53;;;;;;;9.18;3.10;;;;;;;15.37;100.00;100939.38;2107381;28;20682;-77
2023/05/07 03:18:15;;;;;;;7.22;2.92;;;;;;;15.36;100.00;100939.41;2102063;28;20048;-77
2023/05/07 03:19:37;;;;;;;9.10;3.45;;;;;;;15.33;100.00;100948.25;2102063;28;20048;-77
2023/05/07 03:20:58;;;;;;;11.70;3.42;;;;;;;15.35;100.00;100951.81;2107955;28;20047;-77
2023/05/07 03:22:21;;;;;;;11.73;3.60;;;;;;;15.39;100.00;100963.31;2110409;28;20146;-77
2023/05/07 03:23:42;;;;;;;13.63;3.60;;;;;;;15.44;100.00;100956.22;2100298;28;20055;-77
2023/05/07 03:25:08;;;;;;;9.45;3.75;;;;;;;15.47;100.00;100964.22;2110344;28;20573;-77
2023/05/07 03:26:29;;;;;;;10.40;3.35;;;;;;;15.47;100.00;100966.88;2097078;28;20041;-77
2023/05/07 03:27:52;;;;;;;9.48;3.53;;;;;;;15.48;100.00;100969.53;2102178;28;20075;-77
2023/05/07 03:29:18;;;;;;;10.50;3.50;;;;;;;15.51;100.00;100974.84;2095263;28;20080;-77
2023/05/07 03:30:40;;;;;;;15.50;3.78;;;;;;;15.55;100.00;100975.78;2095263;28;20095;-77
2023/05/07 03:32:01;;;;;;;10.63;3.67;;;;;;;15.60;100.00;100968.66;2091308;28;20044;-77
2023/05/07 03:33:24;;;;;;;12.43;3.85;;;;;;;15.65;100.00;100973.97;2091096;28;20156;-77
2023/05/07 03:34:46;;;;;;;10.00;3.58;;;;;;;15.67;100.00;100964.22;2090780;28;20048;-77
2023/05/07 03:36:09;;;;;;;10.15;3.72;;;;;;;15.69;100.00;100968.63;2091135;28;20130;-77
2023/05/07 03:37:30;;;;;;;11.48;3.75;;;;;;;15.65;100.00;100969.53;2090780;28;20114;-77
2023/05/07 03:38:53;;;;;;;11.02;3.53;;;;;;;15.67;100.00;100975.75;2097319;28;20044;-77
2023/05/07 03:40:19;;;;;;;14.65;3.97;;;;;;;15.73;100.00;100973.06;2100346;28;20146;-77
2023/05/07 03:41:45;;;;;;;11.00;2.92;;;;;;;15.78;100.00;100967.72;2108838;28;20055;-77
2023/05/07 03:43:06;;;;;;;10.27;3.42;;;;;;;15.82;100.00;100980.13;2104306;28;20096;-78
2023/05/07 03:44:31;;;;;;;11.48;3.45;;;;;;;15.84;100.00;100971.25;2098436;28;20614;-77
2023/05/07 03:45:54;;;;;;;10.38;3.53;;;;;;;15.89;100.00;100984.56;2083281;28;20029;-77
2023/05/07 03:47:21;;;;;;;11.02;3.63;;;;;;;15.94;100.00;100986.34;2095479;28;20091;-77
2023/05/07 03:48:42;;;;;;;9.75;3.67;;;;;;;15.95;100.00;100990.75;2096208;28;20057;-77
2023/05/07 03:50:05;;;;;;;;;;;;;;;15.97;100.00;100992.53;2099830;28;20102;-77
2023/05/07 03:51:28;;;;;;;13.18;3.50;;;;;;;15.95;100.00;100990.75;2108072;28;20292;-76
2023/05/07 03:52:49;;;;;;;9.23;3.38;;;;;;;16.00;100.00;100992.53;2111838;28;20061;-77
2023/05/07 03:54:14;;;;;;;14.80;3.83;;;;;;;16.01;100.00;100999.63;2103419;28;20067;-76
2023/05/07 03:55:41;;;;;;;12.65;3.08;;;;;;;16.01;100.00;100997.88;2103748;28;20483;-77
2023/05/07 03:57:02;;;;;;;8.93;3.13;;;;;;;16.01;100.00;100996.97;2109410;28;20039;-77
2023/05/07 03:58:25;;;;;;;12.27;3.30;;;;;;;16.01;100.00;100997.88;2100446;28;20050;-77
2023/05/07 03:59:49;;;;;;;9.70;3.60;;;;;;;16.00;100.00;100990.75;2092002;28;20094;-77
2023/05/07 04:01:11;;;;;;;10.48;3.47;;;;;;;16.00;100.00;100995.19;2103540;28;20079;-77
2023/05/07 04:02:33;;;;;;;15.32;3.75;;;;;;;15.99;100.00;100991.66;2086685;28;20052;-77
2023/05/07 04:03:56;;;;;;;11.75;3.58;;;;;;;15.98;100.00;100996.97;2092126;28;20561;-77
2023/05/07 04:05:19;;;;;;;10.32;3.47;;;;;;;16.01;100.00;100996.97;2083987;28;20037;-77
2023/05/07 04:06:45;;;;;;;11.95;3.50;;;;;;;16.03;100.00;100988.06;2085192;28;20049;-78
2023/05/07 04:08:07;;;;;;;11.02;3.30;;;;;;;16.06;100.00;100995.19;2083912;28;20056;-77
2023/05/07 04:09:37;;;;;;;11.52;3.33;;;;;;;16.08;100.00;100986.28;2094700;28;20045;-78
2023/05/07 04:11:00;;;;;;;10.68;3.17;;;;;;;16.09;100.00;101001.38;2103086;28;20668;-77
2023/05/07 04:12:25;;;;;;;12.45;3.47;;;;;;;16.08;100.00;101009.38;2086523;28;20099;-77
2023/05/07 04:13:48;;;;;;;9.73;3.15;;;;;;;16.07;100.00;100999.63;2092406;28;20131;-77
2023/05/07 04:15:12;;;;;;;11.10;3.13;;;;;;;16.05;100.00;101004.94;2093218;28;20062;-77
2023/05/07 04:16:36;;;;;;;12.88;3.50;;;;;;;16.03;100.00;101004.03;2094732;28;20040;-77
2023/05/07 04:17:57;;;;;;;10.50;3.35;;;;;;;16.07;100.00;101005.84;2095257;28;20072;-77
2023/05/07 04:19:21;;;;;;;9.77;3.22;;;;;;;16.09;100.00;101013.78;2092149;28;20502;-77
2023/05/07 04:20:45;;;;;;;8.65;3.25;;;;;;;16.13;100.00;101018.25;2100885;28;20100;-77
2023/05/07 04:22:11;;;;;;;8.60;2.45;;;;;;;16.16;100.00;101002.22;2095186;28;20400;-77
2023/05/07 04:23:34;;;;;;;9.55;3.00;;;;;;;16.15;100.00;101006.66;2092533;28;20467;-77
2023/05/07 04:24:58;;;;;;;10.02;3.00;;;;;;;16.16;100.00;101005.78;2095041;28;20568;-77
2023/05/07 04:26:23;;;;;;;10.27;3.10;;;;;;;16.17;100.00;101014.66;2094469;28;20072;-77
2023/05/07 04:27:45;;;;;;;7.55;2.95;;;;;;;16.21;100.00;101022.63;2086737;28;20046;-77
2023/05/07 04:29:13;;;;;;;10.60;2.95;;;;;;;16.22;100.00;101023.53;2087190;28;20056;-78
2023/05/07 04:30:36;;;;;;;12.30;3.53;;;;;;;16.24;100.00;101024.41;2086295;28;20052;-77
2023/05/07 04:31:59;;;;;;;13.30;3.10;;;;;;;16.23;100.00;101027.97;2093066;28;20523;-77
2023/05/07 04:33:23;;;;;;;7.63;3.08;;;;;;;16.23;100.00;101031.50;2086173;28;20132;-77
2023/05/07 04:34:46;;;;;;;9.15;3.10;;;;;;;16.25;100.00;101021.75;2086710;28;20430;-77
2023/05/07 04:36:08;;;;;;;13.55;3.53;;;;;;;16.22;100.00;101027.06;2094683;28;20450;-77
2023/05/07 04:37:36;;;;;;;10.43;3.70;;;;;;;16.24;100.00;101033.28;2091355;28;20080;-76
2023/05/07 04:38:58;;;;;;;12.63;3.53;;;;;;;16.26;100.00;101030.63;2094848;28;20067;-77
2023/05/07 04:40:20;;;;;;;11.20;3.70;;;;;;;16.28;100.00;101036.81;2094497;28;20044;-77
2023/05/07 04:41:44;;;;;;;9.45;3.13;;;;;;;16.31;100.00;101023.50;2086275;28;20107;-77
2023/05/07 04:43:07;;;;;;;11.32;3.30;;;;;;;16.31;100.00;101035.03;2094766;28;20131;-77
2023/05/07 04:44:36;;;;;;;12.90;3.40;;;;;;;16.30;100.00;101038.59;2087426;28;20465;-77
2023/05/07 04:46:00;;;;;;;12.13;3.03;;;;;;;16.31;100.00;101036.81;2089416;28;20089;-77
2023/05/07 04:47:22;;;;;;;12.23;3.33;;;;;;;16.33;100.00;101040.38;2100567;28;20048;-77
2023/05/07 04:48:44;;;;;;;9.30;3.30;;;;;;;16.38;100.00;101045.69;2103052;28;20435;-77
2023/05/07 04:50:08;;;;;;;13.25;3.17;;;;;;;16.41;100.00;101046.53;2100122;28;20075;-77
2023/05/07 04:51:32;;;;;;;12.27;3.20;;;;;;;16.44;100.00;101048.31;2101425;28;20067;-78
2023/05/07 04:52:55;;;;;;;9.52;3.33;;;;;;;16.47;100.00;101051.00;2093790;28;20040;-77
2023/05/07 04:54:19;;;;;;;10.68;3.00;;;;;;;16.47;100.00;101057.22;2092635;28;20040;-77
2023/05/07 04:55:41;;;;;;;12.65;3.22;;;;;;;16.46;100.00;101052.75;2106984;28;20035;-77
2023/05/07 04:57:06;;;;;;;11.82;3.50;;;;;;;16.48;100.00;101055.41;2092471;28;20432;-76
2023/05/07 04:58:31;;;;;;;10.63;2.92;;;;;;;16.48;100.00;101058.94;2093810;28;20454;-77
2023/05/07 04:59:52;;;;;;;13.57;3.47;;;;;;;16.48;100.00;101058.06;2100299;28;20098;-77
2023/05/07 05:01:15;;;;;;;10.77;3.00;;;;;;;16.48;100.00;101060.72;2102005;28;20677;-77
2023/05/07 05:02:37;;;;;;;9.68;3.10;;;;;;;16.51;100.00;101058.94;2096022;28;20048;-77
2023/05/07 05:04:00;;;;;;;10.48;3.35;;;;;;;16.55;100.00;101054.47;2091785;28;20374;-76
2023/05/07 05:05:21;;;;;;;7.90;3.05;;;;;;;16.59;100.00;101051.81;2094762;28;20068;-77
2023/05/07 05:06:46;;;;;;;7.82;3.50;;;;;;;16.61;100.00;101066.03;2096555;28;20040;-77
2023/05/07 05:08:09;;;;;;;12.32;3.95;;;;;;;16.64;100.00;101068.72;2091867;28;20420;-77
2023/05/07 05:09:34;;;;;;;9.80;3.13;;;;;;;16.72;100.00;101061.56;2087784;28;20079;-77
2023/05/07 05:10:57;;;;;;;12.02;3.20;;;;;;;16.78;100.00;101054.44;2100117;28;20483;-77
2023/05/07 05:12:20;;;;;;;8.65;3.30;;;;;;;16.85;100.00;101066.84;2090013;28;20593;-77
2023/05/07 05:13:43;;;;;;;10.82;2.70;;;;;;;16.88;100.00;101069.47;2092569;28;20072;-77
2023/05/07 05:15:11;;;;;;;11.80;3.20;;;;;;;16.97;100.00;101064.09;2090212;28;20139;-77
2023/05/07 05:16:33;;;;;;;11.00;3.28;;;;;;;17.16;100.00;101075.53;2088351;28;20048;-77
2023/05/07 05:17:54;;;;;;;10.10;3.08;;;;;;;17.31;100.00;101071.00;2087097;28;20049;-77
2023/05/07 05:19:17;;;;;;;9.07;3.10;;;;;;;17.43;100.00;101086.91;2092540;28;20044;-76
2023/05/07 05:20:39;;;;;;;9.70;3.25;;;;;;;17.52;100.00;101086.84;2092807;28;20045;-76
2023/05/07 05:22:03;;;;;;;10.70;2.83;;;;;;;17.58;100.00;101079.69;2092863;28;20051;-77
2023/05/07 05:23:26;;;;;;;8.35;3.67;;;;;;;17.64;100.00;101088.56;2095399;28;20040;-77
2023/05/07 05:24:47;;;;;;;6.45;2.75;;;;;;;17.68;100.00;101097.44;2090661;28;20044;-77
2023/05/07 05:26:10;;;;;;;9.30;2.97;;;;;;;17.63;100.00;101084.13;2098236;28;20055;-77
2023/05/07 05:27:33;;;;;;;12.90;3.75;;;;;;;17.57;100.00;101096.59;2093273;28;20049;-77
2023/05/07 05:28:56;;;;;;;10.35;3.38;;;;;;;17.53;100.00;101095.72;2089859;28;20044;-76
2023/05/07 05:30:20;;;;;;;13.80;3.63;;;;;;;17.47;100.00;101091.31;2094897;28;20143;-76
2023/05/07 05:31:43;;;;;;;10.27;3.75;;;;;;;17.44;100.00;101091.38;2096915;28;20143;-76
2023/05/07 05:33:06;;;;;;;11.80;3.88;;;;;;;17.43;100.00;101094.03;2101321;28;20415;-76
2023/05/07 05:34:28;;;;;;;12.15;3.50;;;;;;;17.46;100.00;101100.22;2093770;28;20512;-77
2023/05/07 05:35:51;;;;;;;10.52;4.43;;;;;;;17.46;100.00;101102.91;2093165;28;20048;-77
2023/05/07 05:37:12;;;;;;;11.13;3.40;;;;;;;17.43;100.00;101102.94;2099987;28;20041;-77
2023/05/07 05:38:35;;;;;;;11.50;3.47;;;;;;;17.43;100.00;101108.28;2099996;28;20055;-76
2023/05/07 05:39:57;;;;;;;9.00;3.10;;;;;;;17.46;100.00;101096.66;2093622;28;20131;-76
2023/05/07 05:41:22;;;;;;;10.90;4.18;;;;;;;17.48;100.00;101102.91;2099420;28;20052;-77
2023/05/07 05:42:46;;;;;;;9.00;3.35;;;;;;;17.53;100.00;101112.63;2100610;28;20524;-77
2023/05/07 05:44:08;;;;;;;11.80;3.30;;;;;;;17.54;100.00;101114.41;2093988;28;20051;-77
2023/05/07 05:45:30;;;;;;;8.82;3.08;;;;;;;17.51;100.00;101111.78;2098258;28;20119;-77
2023/05/07 05:46:54;;;;;;;19.60;3.78;;;;;;;17.50;100.00;101110.00;2094016;28;20033;-76
2023/05/07 05:48:18;;;;;;;12.30;3.83;;;;;;;17.50;100.00;101109.13;2099154;28;20093;-77
2023/05/07 05:49:40;;;;;;;13.73;3.75;;;;;;;17.54;100.00;101110.84;2096402;28;20052;-77
2023/05/07 05:51:04;;;;;;;12.25;3.75;;;;;;;17.67;100.00;101109.91;2090321;28;20041;-77
2023/05/07 05:52:26;;;;;;;14.07;3.55;;;;;;;17.87;100.00;101121.31;2091344;28;20049;-77
2023/05/07 05:53:50;;;;;;;9.38;3.15;;;;;;;17.93;100.00;101101.66;2092118;28;20063;-77
2023/05/07 05:55:13;;;;;;;12.27;3.97;;;;;;;17.96;100.00;101109.66;2089145;28;20052;-77
2023/05/07 05:56:34;;;;;;;11.05;3.78;;;;;;;18.12;100.00;101113.94;2094578;28;20596;-77
2023/05/07 05:57:58;;;;;;;11.35;3.22;;;;;;;18.15;100.00;101110.38;2102149;28;20093;-77
2023/05/07 05:59:20;;;;;;;11.48;3.25;;;;;;;18.14;100.00;101101.47;2096244;28;20060;-77
2023/05/07 06:00:43;;;;;;;9.73;3.38;;;;;;;18.31;100.00;101107.50;2089143;28;20087;-77
2023/05/07 06:02:05;;;;;;;12.07;3.40;;;;;;;18.46;100.00;101113.59;2099587;28;20036;-77
2023/05/07 06:03:28;;;;;;;12.95;3.08;;;;;;;18.71;100.00;101101.75;2093788;28;20064;-77
2023/05/07 06:04:52;;;;;;;10.93;3.72;;;;;;;18.94;100.00;101109.50;2087239;28;20068;-77
2023/05/07 06:06:16;;;;;;;12.55;3.22;;;;;;;18.94;100.00;101109.50;2090852;28;20067;-77
2023/05/07 06:07:38;;;;;;;13.05;3.38;;;;;;;18.88;100.00;101098.88;2089390;28;20505;-77
2023/05/07 06:09:01;;;;;;;9.13;3.45;;;;;;;18.91;100.00;101113.06;2101670;28;20048;-77
2023/05/07 06:10:31;;;;;;;9.65;3.38;;;;;;;19.00;100.00;101121.00;2093334;28;20132;-77
2023/05/07 06:11:54;;;;;;;14.73;3.65;;;;;;;19.17;100.00;101112.72;2092224;28;20055;-77
2023/05/07 06:13:17;;;;;;;12.02;3.45;;;;;;;19.25;100.00;101117.97;2100691;28;20048;-77
2023/05/07 06:14:40;;;;;;;10.65;3.63;;;;;;;19.43;100.00;101109.66;2103940;28;20086;-77
2023/05/07 06:16:03;;;;;;;11.18;3.58;;;;;;;19.45;100.00;101113.22;2088938;28;20094;-77
2023/05/07 06:17:25;;;;;;;14.02;2.92;;;;;;;19.39;100.00;101118.66;2101398;28;20044;-77
2023/05/07 06:18:47;;;;;;;12.63;3.40;;;;;;;19.39;100.00;101119.56;2096325;28;20440;-77